Albany, Wisconsin
Current Conditions -  °F | °C
As of 4:35 AM on Sunday 26 Oct 2014 (Local Time) from KEFT Reporting Station
Clear Clear  
Wind Chill:   Ceiling: Unl
Heat Index:   Visibility: 10mi
Dew Point: -1°   Wind: 7mph
Humidity: 57%   Direction: 310°NW
Pressure: 30.01"   Gusts: NA
Location:  42.71°N, 89.44°W
Report Text: KEFT 260935Z AUTO 31006KT 10SM CLR 07/M01 A3001 RMK AO2
Loading
Personal Weather Stations






























Interactive Weather Map
Tropical Storm Tracking
New forecast layout! Learn more

10-Day Weather Forecast

Advertisements
Track Severe Weather on mobile